createdAt,value
2022-09-05T00:00:14.629Z,17.70
2022-09-05T00:02:55.615Z,17.80
2022-09-05T00:05:41.301Z,17.70
2022-09-05T00:08:27.660Z,17.70
2022-09-05T00:11:42.899Z,17.70
2022-09-05T00:15:14.850Z,17.60
2022-09-05T00:17:27.864Z,17.60
2022-09-05T00:24:24.770Z,17.50
2022-09-05T00:24:25.585Z,17.50
2022-09-05T00:27:04.000Z,17.50
2022-09-05T00:33:16.791Z,17.40
2022-09-05T00:36:08.287Z,17.50
2022-09-05T00:38:38.550Z,17.40
2022-09-05T00:41:09.578Z,17.40
2022-09-05T00:43:42.782Z,17.40
2022-09-05T00:46:32.155Z,17.40
2022-09-05T00:49:23.917Z,17.40
2022-09-05T00:52:00.298Z,17.40
2022-09-05T00:55:00.245Z,17.30
2022-09-05T00:58:06.577Z,17.30
2022-09-05T01:00:33.240Z,17.30
2022-09-05T01:03:26.989Z,17.20
2022-09-05T01:06:29.357Z,17.20
2022-09-05T01:09:15.059Z,17.20
2022-09-05T01:12:20.122Z,17.10
2022-09-05T01:15:02.127Z,17.10
2022-09-05T01:18:04.765Z,17.00
2022-09-05T01:20:49.183Z,17.00
2022-09-05T01:23:44.523Z,16.90
2022-09-05T01:26:11.137Z,16.90
2022-09-05T01:29:18.301Z,16.80
2022-09-05T01:31:58.652Z,16.80
2022-09-05T01:35:17.819Z,16.70
2022-09-05T01:37:53.256Z,16.60
2022-09-05T01:40:38.415Z,16.60
2022-09-05T01:43:34.026Z,16.60
2022-09-05T01:46:22.379Z,16.60
2022-09-05T01:48:57.892Z,16.60
2022-09-05T01:51:46.169Z,16.50
2022-09-05T01:54:26.370Z,16.50
2022-09-05T01:57:21.376Z,16.40
2022-09-05T02:00:04.146Z,16.40
2022-09-05T02:02:48.842Z,16.30
2022-09-05T02:05:20.768Z,16.30
2022-09-05T02:08:27.715Z,16.20
2022-09-05T02:11:10.629Z,16.30
2022-09-05T02:13:38.182Z,16.30
2022-09-05T02:16:05.212Z,16.20
2022-09-05T02:18:59.065Z,16.20
2022-09-05T02:21:56.597Z,16.10
2022-09-05T02:24:32.747Z,16.10
2022-09-05T02:28:03.803Z,16.10
2022-09-05T02:30:21.857Z,16.00
2022-09-05T02:33:05.926Z,16.00
2022-09-05T02:35:35.601Z,16.00
2022-09-05T02:41:01.166Z,16.00
2022-09-05T02:45:09.054Z,15.90
2022-09-05T02:45:11.754Z,15.90
2022-09-05T02:47:15.253Z,15.80
2022-09-05T02:52:03.879Z,15.90
2022-09-05T02:57:24.058Z,15.80
2022-09-05T02:57:38.792Z,15.80
2022-09-05T02:59:09.219Z,15.80
2022-09-05T03:01:56.420Z,15.70
2022-09-05T03:04:36.077Z,15.70
2022-09-05T03:07:26.911Z,15.70
2022-09-05T03:10:06.154Z,15.70
2022-09-05T03:12:54.484Z,15.70
2022-09-05T03:15:39.906Z,15.70
2022-09-05T03:18:34.106Z,15.60
2022-09-05T03:21:38.262Z,15.50
2022-09-05T03:24:32.714Z,15.50
2022-09-05T03:27:36.488Z,15.50
2022-09-05T03:30:21.552Z,15.50
2022-09-05T03:33:12.812Z,15.40
2022-09-05T03:36:13.763Z,15.40
2022-09-05T03:39:20.357Z,15.40
2022-09-05T03:41:56.706Z,15.40
2022-09-05T03:44:42.176Z,15.40
2022-09-05T03:47:53.817Z,15.40
2022-09-05T03:57:06.447Z,15.40
2022-09-05T03:57:22.568Z,15.30
2022-09-05T03:57:42.758Z,15.30
2022-09-05T04:00:27.430Z,15.30
2022-09-05T04:08:15.309Z,15.20
2022-09-05T04:08:16.719Z,15.20
2022-09-05T04:08:46.185Z,15.20
2022-09-05T04:11:25.162Z,15.10
2022-09-05T04:13:58.277Z,15.10
2022-09-05T04:16:27.097Z,15.20
2022-09-05T04:18:55.167Z,15.20
2022-09-05T04:21:29.555Z,15.20
2022-09-05T04:24:02.352Z,15.20
2022-09-05T04:27:07.796Z,15.10
2022-09-05T04:29:57.950Z,15.10
2022-09-05T04:32:24.618Z,15.00
2022-09-05T04:35:18.375Z,15.00
2022-09-05T04:37:55.199Z,14.90
2022-09-05T04:40:40.457Z,14.90
2022-09-05T04:43:13.290Z,14.90
2022-09-05T04:45:56.677Z,14.90
2022-09-05T04:48:37.079Z,14.90
2022-09-05T04:51:13.309Z,14.90
2022-09-05T04:53:49.198Z,14.90
2022-09-05T04:56:21.484Z,14.80
2022-09-05T05:01:00.327Z,14.90
2022-09-05T05:06:11.231Z,14.70
2022-09-05T05:06:19.104Z,14.80
2022-09-05T05:07:48.856Z,14.70
2022-09-05T05:11:06.134Z,14.80
2022-09-05T05:18:03.730Z,14.80
2022-09-05T05:18:06.722Z,14.80
2022-09-05T05:19:21.918Z,14.80
2022-09-05T05:21:56.329Z,14.80
2022-09-05T05:24:52.530Z,14.80
2022-09-05T05:27:27.991Z,14.80
2022-09-05T05:30:28.236Z,14.80
2022-09-05T05:32:55.857Z,14.80
2022-09-05T05:35:31.502Z,14.80
2022-09-05T05:38:25.081Z,14.80
2022-09-05T05:41:01.017Z,14.90
2022-09-05T05:43:40.833Z,15.00
2022-09-05T05:46:24.807Z,15.00
2022-09-05T05:48:57.223Z,15.10
2022-09-05T05:52:01.655Z,15.10
2022-09-05T05:54:40.427Z,15.20
2022-09-05T05:57:42.873Z,15.20
2022-09-05T06:00:24.553Z,15.30
2022-09-05T06:03:26.888Z,15.40
2022-09-05T06:06:31.166Z,15.40
2022-09-05T06:13:32.923Z,15.50
2022-09-05T06:15:01.922Z,15.60
2022-09-05T06:15:40.582Z,15.70
2022-09-05T06:18:29.242Z,15.80
2022-09-05T06:22:07.167Z,16.00
2022-09-05T06:24:07.223Z,16.00
2022-09-05T06:26:59.027Z,16.10
2022-09-05T06:29:49.762Z,16.20
2022-09-05T06:32:58.425Z,16.40
2022-09-05T06:35:46.654Z,16.60
2022-09-05T06:38:27.403Z,16.90
2022-09-05T06:41:18.037Z,17.10
2022-09-05T06:44:31.184Z,17.40
2022-09-05T06:47:24.091Z,17.70
2022-09-05T06:50:26.972Z,18.00
2022-09-05T06:53:29.988Z,18.40
2022-09-05T06:56:07.211Z,18.80
2022-09-05T06:59:20.664Z,19.20
2022-09-05T07:02:01.100Z,19.60
2022-09-05T07:05:23.227Z,20.00
2022-09-05T07:07:45.934Z,20.40
2022-09-05T07:10:39.622Z,20.90
2022-09-05T07:13:33.437Z,21.30
2022-09-05T07:16:17.186Z,21.70
2022-09-05T07:19:33.150Z,22.10
2022-09-05T07:22:07.363Z,22.40
2022-09-05T07:24:55.757Z,22.70
2022-09-05T07:27:29.774Z,23.00
2022-09-05T07:30:00.977Z,23.20
2022-09-05T07:32:33.150Z,23.50
2022-09-05T07:35:04.235Z,23.70
2022-09-05T07:37:40.964Z,23.90
2022-09-05T07:40:25.328Z,24.10
2022-09-05T07:43:09.780Z,24.30
2022-09-05T07:45:52.322Z,24.30
2022-09-05T07:48:34.321Z,24.40
2022-09-05T07:55:27.546Z,24.50
2022-09-05T07:57:00.664Z,24.60
2022-09-05T08:00:01.834Z,24.90
2022-09-05T08:02:28.581Z,25.00
2022-09-05T08:05:03.065Z,25.20
2022-09-05T08:07:49.804Z,25.50
2022-09-05T08:10:35.835Z,25.60
2022-09-05T08:13:23.724Z,25.80
2022-09-05T08:16:10.379Z,25.90
2022-09-05T08:19:18.582Z,26.00
2022-09-05T08:21:49.777Z,26.00
2022-09-05T08:24:27.116Z,26.20
2022-09-05T08:27:17.046Z,26.30
2022-09-05T08:29:58.945Z,26.50
2022-09-05T08:32:42.148Z,26.70
2022-09-05T08:35:43.060Z,26.90
2022-09-05T08:38:13.434Z,26.90
2022-09-05T08:40:50.653Z,27.10
2022-09-05T08:46:39.154Z,27.30
2022-09-05T08:46:49.571Z,27.40
2022-09-05T08:49:38.602Z,27.40
2022-09-05T08:52:33.122Z,27.60
2022-09-05T08:55:24.057Z,27.90
2022-09-05T08:58:07.557Z,28.00
2022-09-05T09:00:44.310Z,28.20
2022-09-05T09:03:26.462Z,28.50
2022-09-05T09:06:13.501Z,28.50
2022-09-05T09:09:05.179Z,28.70
2022-09-05T09:11:34.108Z,28.90
2022-09-05T09:14:30.584Z,29.00
2022-09-05T09:17:32.873Z,29.30
2022-09-05T09:20:27.126Z,29.40
2022-09-05T09:23:34.257Z,29.50
2022-09-05T09:26:08.247Z,29.90
2022-09-05T09:28:49.556Z,30.30
2022-09-05T09:31:39.221Z,30.20
2022-09-05T09:34:27.012Z,30.40
2022-09-05T09:37:08.821Z,31.00
2022-09-05T09:40:05.817Z,31.20
2022-09-05T09:42:55.801Z,31.10
2022-09-05T09:45:34.656Z,31.10
2022-09-05T09:48:26.098Z,31.00
2022-09-05T09:51:13.194Z,31.00
2022-09-05T09:53:57.814Z,31.00
2022-09-05T09:57:11.130Z,31.20
2022-09-05T10:00:08.275Z,31.40
2022-09-05T10:07:25.380Z,31.70
2022-09-05T10:10:43.514Z,32.00
2022-09-05T10:10:55.285Z,32.00
2022-09-05T10:12:39.409Z,31.90
2022-09-05T10:15:32.459Z,32.00
2022-09-05T10:18:24.353Z,32.20
2022-09-05T10:21:17.580Z,32.50
2022-09-05T10:23:53.272Z,32.70
2022-09-05T10:26:51.347Z,32.60
2022-09-05T10:29:42.518Z,32.80
2022-09-05T10:35:04.610Z,32.80
2022-09-05T10:35:24.262Z,32.70
2022-09-05T10:38:06.333Z,32.30
2022-09-05T10:41:06.665Z,32.10
2022-09-05T10:43:30.148Z,32.50
2022-09-05T10:45:56.855Z,32.60
2022-09-05T10:48:53.127Z,32.60
2022-09-05T10:51:28.309Z,32.60
2022-09-05T10:54:11.717Z,32.30
2022-09-05T10:56:53.917Z,32.50
2022-09-05T11:02:19.846Z,32.40
2022-09-05T11:02:36.766Z,32.70
2022-09-05T11:05:26.852Z,33.00
2022-09-05T11:08:01.677Z,33.20
2022-09-05T11:10:44.195Z,33.40
2022-09-05T11:13:25.330Z,33.20
2022-09-05T11:16:26.145Z,33.30
2022-09-05T11:18:57.319Z,33.00
2022-09-05T11:21:27.169Z,32.60
2022-09-05T11:24:02.153Z,32.60
2022-09-05T11:26:44.508Z,32.70
2022-09-05T11:29:22.961Z,32.90
2022-09-05T11:36:06.841Z,33.20
2022-09-05T11:39:49.070Z,33.50
2022-09-05T11:40:02.338Z,33.60
2022-09-05T11:41:20.485Z,33.60
2022-09-05T11:44:00.990Z,33.90
2022-09-05T11:46:52.389Z,33.80
2022-09-05T11:49:51.432Z,33.90
2022-09-05T11:53:05.772Z,34.20
2022-09-05T11:55:35.719Z,34.50
2022-09-05T12:01:44.270Z,34.40
2022-09-05T12:04:31.514Z,33.90
2022-09-05T12:07:29.815Z,33.40
2022-09-05T12:10:09.849Z,33.30
2022-09-05T12:13:32.141Z,33.70
2022-09-05T12:16:08.142Z,34.10
2022-09-05T12:18:56.762Z,34.10
2022-09-05T12:21:44.661Z,34.00
2022-09-05T12:25:15.848Z,34.30
2022-09-05T12:27:41.242Z,34.50
2022-09-05T12:30:09.924Z,34.80
2022-09-05T12:36:01.639Z,34.80
2022-09-05T12:40:28.646Z,34.90
2022-09-05T12:40:57.647Z,34.40
2022-09-05T12:41:32.787Z,34.80
2022-09-05T12:43:44.954Z,34.60
2022-09-05T12:46:14.393Z,34.60
2022-09-05T12:49:07.278Z,34.60
2022-09-05T12:51:47.030Z,34.80
2022-09-05T12:54:33.452Z,34.50
2022-09-05T13:01:21.781Z,34.40
2022-09-05T13:03:07.057Z,34.00
2022-09-05T13:03:27.629Z,33.70
2022-09-05T13:05:59.044Z,33.80
2022-09-05T13:08:40.350Z,34.00
2022-09-05T13:15:02.506Z,34.10
2022-09-05T13:15:07.945Z,34.20
2022-09-05T13:16:53.785Z,33.90
2022-09-05T13:19:46.110Z,33.70
2022-09-05T13:22:16.159Z,33.40
2022-09-05T13:24:50.422Z,33.40
2022-09-05T13:27:31.649Z,33.50
2022-09-05T13:31:51.024Z,33.80
2022-09-05T13:38:10.812Z,34.10
2022-09-05T13:38:12.952Z,34.40
2022-09-05T13:39:02.275Z,34.40
2022-09-05T13:41:33.279Z,34.20
2022-09-05T13:44:25.707Z,33.90
2022-09-05T13:47:06.323Z,33.90
2022-09-05T13:50:05.062Z,34.20
2022-09-05T13:52:38.601Z,34.10
2022-09-05T13:55:20.913Z,33.90
2022-09-05T13:57:59.728Z,33.80
2022-09-05T14:00:33.894Z,33.40
2022-09-05T14:03:30.716Z,33.50
2022-09-05T14:06:47.431Z,33.20
2022-09-05T14:09:42.635Z,33.30
2022-09-05T14:12:36.985Z,33.30
2022-09-05T14:15:25.922Z,33.50
2022-09-05T14:18:22.997Z,33.60
2022-09-05T14:21:16.792Z,33.70
2022-09-05T14:24:03.134Z,33.40
2022-09-05T14:27:06.930Z,33.40
2022-09-05T14:29:47.107Z,33.20
2022-09-05T14:37:34.685Z,33.20
2022-09-05T14:37:53.120Z,33.30
2022-09-05T14:39:03.922Z,33.20
2022-09-05T14:42:01.842Z,33.10
2022-09-05T14:44:52.384Z,33.10
2022-09-05T14:47:32.307Z,33.20
2022-09-05T14:50:18.272Z,33.30
2022-09-05T14:57:23.314Z,33.50
2022-09-05T15:02:51.033Z,33.60
2022-09-05T15:02:52.606Z,33.70
2022-09-05T15:05:11.005Z,33.60
2022-09-05T15:08:01.710Z,33.60
2022-09-05T15:12:18.327Z,33.50
2022-09-05T15:13:28.778Z,33.50
2022-09-05T15:16:15.394Z,33.40
2022-09-05T15:18:48.034Z,33.30
2022-09-05T15:21:33.167Z,33.00
2022-09-05T15:24:16.873Z,33.00
2022-09-05T15:26:58.779Z,33.00
2022-09-05T15:29:35.924Z,33.00
2022-09-05T15:32:22.593Z,32.90
2022-09-05T15:34:51.218Z,32.80
2022-09-05T15:37:42.612Z,32.70
2022-09-05T15:40:22.590Z,32.60
2022-09-05T15:43:00.808Z,32.70
2022-09-05T15:45:32.895Z,32.40
2022-09-05T15:48:12.514Z,32.40
2022-09-05T15:50:45.984Z,32.40
2022-09-05T15:53:35.056Z,32.60
2022-09-05T15:56:10.801Z,32.50
2022-09-05T15:59:04.689Z,32.40
2022-09-05T16:01:59.096Z,32.40
2022-09-05T16:08:47.404Z,32.20
2022-09-05T16:10:34.320Z,32.20
2022-09-05T16:10:49.601Z,32.20
2022-09-05T16:13:17.571Z,32.20
2022-09-05T16:19:44.636Z,32.00
2022-09-05T16:23:15.702Z,31.80
2022-09-05T16:23:30.679Z,31.70
2022-09-05T16:24:58.454Z,31.60
2022-09-05T16:27:43.975Z,31.40
2022-09-05T16:30:15.465Z,31.30
2022-09-05T16:32:51.267Z,31.20
2022-09-05T16:35:18.531Z,31.20
2022-09-05T16:38:07.051Z,31.20
2022-09-05T16:40:42.687Z,31.20
2022-09-05T16:43:34.515Z,31.20
2022-09-05T16:46:21.581Z,31.20
2022-09-05T16:48:55.389Z,31.10
2022-09-05T16:51:34.770Z,31.10
2022-09-05T16:54:11.207Z,31.00
2022-09-05T16:56:55.712Z,30.90
2022-09-05T16:59:27.044Z,30.90
2022-09-05T17:02:11.433Z,30.80
2022-09-05T17:05:17.773Z,30.80
2022-09-05T17:07:56.369Z,30.70
2022-09-05T17:10:30.562Z,30.70
2022-09-05T17:12:57.548Z,30.60
2022-09-05T17:15:39.456Z,30.50
2022-09-05T17:18:25.081Z,30.40
2022-09-05T17:20:57.016Z,30.30
2022-09-05T17:27:53.888Z,30.10
2022-09-05T17:29:47.236Z,30.00
2022-09-05T17:32:49.910Z,29.60
2022-09-05T17:35:21.753Z,29.40
2022-09-05T17:38:11.611Z,29.30
2022-09-05T17:41:16.061Z,29.10
2022-09-05T17:43:47.419Z,28.90
2022-09-05T17:46:29.758Z,28.80
2022-09-05T17:49:19.077Z,28.50
2022-09-05T17:51:52.936Z,28.40
2022-09-05T17:54:28.990Z,28.30
2022-09-05T17:56:56.434Z,28.20
2022-09-05T17:59:24.869Z,28.00
2022-09-05T18:02:06.669Z,27.80
2022-09-05T18:04:50.700Z,27.60
2022-09-05T18:07:26.226Z,27.50
2022-09-05T18:10:15.454Z,27.30
2022-09-05T18:13:13.158Z,27.20
2022-09-05T18:15:38.819Z,27.00
2022-09-05T18:18:22.126Z,26.80
2022-09-05T18:21:22.053Z,26.60
2022-09-05T18:24:02.206Z,26.50
2022-09-05T18:26:39.470Z,26.40
2022-09-05T18:32:37.805Z,26.10
2022-09-05T18:35:29.298Z,25.90
2022-09-05T18:38:04.175Z,25.70
2022-09-05T18:40:55.378Z,25.60
2022-09-05T18:44:00.567Z,25.40
2022-09-05T18:46:46.045Z,25.20
2022-09-05T18:50:22.327Z,25.10
2022-09-05T18:52:28.894Z,25.00
2022-09-05T18:56:09.811Z,24.90
2022-09-05T18:58:05.383Z,24.80
2022-09-05T19:00:44.631Z,24.60
2022-09-05T19:03:26.355Z,24.50
2022-09-05T19:06:02.862Z,24.40
2022-09-05T19:08:54.020Z,24.20
2022-09-05T19:11:28.207Z,24.00
2022-09-05T19:14:25.356Z,23.90
2022-09-05T19:16:48.562Z,23.90
2022-09-05T19:19:19.398Z,23.80
2022-09-05T19:22:48.566Z,23.70
2022-09-05T19:24:47.542Z,23.60
2022-09-05T19:32:39.053Z,23.50
2022-09-05T19:36:46.483Z,23.40
2022-09-05T19:37:02.955Z,23.20
2022-09-05T19:37:03.447Z,23.10
2022-09-05T19:38:32.934Z,23.00
2022-09-05T19:47:27.074Z,23.00
2022-09-05T19:47:41.053Z,22.80
2022-09-05T19:47:50.724Z,22.80
2022-09-05T19:49:57.967Z,22.70
2022-09-05T19:52:26.515Z,22.60
2022-09-05T19:54:55.979Z,22.60
2022-09-05T19:57:25.365Z,22.50
2022-09-05T19:59:54.575Z,22.50
2022-09-05T20:02:33.051Z,22.40
2022-09-05T20:05:02.650Z,22.30
2022-09-05T20:07:32.350Z,22.20
2022-09-05T20:10:02.987Z,22.10
2022-09-05T20:12:31.012Z,22.10
2022-09-05T20:15:17.807Z,22.10
2022-09-05T20:17:45.953Z,22.10
2022-09-05T20:20:16.779Z,22.00
2022-09-05T20:22:50.774Z,22.00
2022-09-05T20:25:40.762Z,22.10
2022-09-05T20:28:14.965Z,22.20
2022-09-05T20:30:45.087Z,22.20
2022-09-05T20:33:40.502Z,22.20
2022-09-05T20:43:09.198Z,22.10
2022-09-05T20:43:23.649Z,22.00
2022-09-05T20:43:24.179Z,22.10
2022-09-05T20:44:41.721Z,22.00
2022-09-05T20:54:06.844Z,21.90
2022-09-05T20:54:16.038Z,21.90
2022-09-05T20:54:31.037Z,21.80
2022-09-05T20:56:27.932Z,21.60
2022-09-05T20:58:58.516Z,21.50
2022-09-05T21:01:26.953Z,21.40
2022-09-05T21:04:02.068Z,21.40
2022-09-05T21:06:35.500Z,21.30
2022-09-05T21:09:24.486Z,21.30
2022-09-05T21:11:51.661Z,21.30
2022-09-05T21:14:20.288Z,21.20
2022-09-05T21:16:55.457Z,21.10
2022-09-05T21:19:29.775Z,21.10
2022-09-05T21:22:09.249Z,21.10
2022-09-05T21:24:36.173Z,21.00
2022-09-05T21:27:23.060Z,20.90
2022-09-05T21:29:58.762Z,20.90
2022-09-05T21:32:30.252Z,20.90
2022-09-05T21:35:15.450Z,20.80
2022-09-05T21:37:53.540Z,20.70
2022-09-05T21:40:21.103Z,20.70
2022-09-05T21:47:34.257Z,20.70
2022-09-05T21:47:40.489Z,20.60
2022-09-05T21:48:24.288Z,20.60
2022-09-05T21:50:53.581Z,20.50
2022-09-05T21:56:41.539Z,20.50
2022-09-05T21:59:32.837Z,20.40
2022-09-05T22:02:08.240Z,20.30
2022-09-05T22:04:41.304Z,20.30
2022-09-05T22:07:15.614Z,20.30
2022-09-05T22:09:42.433Z,20.30
2022-09-05T22:12:14.556Z,20.20
2022-09-05T22:14:56.856Z,20.20
2022-09-05T22:17:39.120Z,20.20
2022-09-05T22:20:08.587Z,20.10
2022-09-05T22:22:37.987Z,20.10
2022-09-05T22:25:21.136Z,20.10
2022-09-05T22:28:00.700Z,20.10
2022-09-05T22:30:28.295Z,20.00
2022-09-05T22:32:54.975Z,20.00
2022-09-05T22:35:28.628Z,20.00
2022-09-05T22:38:10.929Z,19.90
2022-09-05T22:40:40.611Z,19.90
2022-09-05T22:43:09.679Z,19.80
2022-09-05T22:45:38.385Z,19.80
2022-09-05T22:48:13.436Z,19.80
2022-09-05T22:50:41.833Z,19.80
2022-09-05T22:53:09.707Z,19.70
2022-09-05T22:55:38.551Z,19.70
2022-09-05T22:58:07.531Z,19.60
2022-09-05T23:00:34.830Z,19.60
2022-09-05T23:03:03.327Z,19.60
2022-09-05T23:05:30.909Z,19.60
2022-09-05T23:07:58.450Z,19.60
2022-09-05T23:10:26.699Z,19.60
2022-09-05T23:12:53.983Z,19.60
2022-09-05T23:15:20.858Z,19.60
2022-09-05T23:17:58.792Z,19.60
2022-09-05T23:20:29.163Z,19.50
2022-09-05T23:22:56.651Z,19.60
2022-09-05T23:25:23.974Z,19.70
2022-09-05T23:27:51.617Z,19.80
2022-09-05T23:30:18.563Z,20.00
2022-09-05T23:32:46.903Z,20.10
2022-09-05T23:35:14.621Z,20.20
2022-09-05T23:37:43.812Z,20.20
2022-09-05T23:40:13.015Z,20.20
2022-09-05T23:42:40.793Z,20.20
2022-09-05T23:45:09.152Z,20.30
2022-09-05T23:47:36.489Z,20.20
2022-09-05T23:50:03.746Z,20.20
2022-09-05T23:52:30.629Z,20.20
2022-09-05T23:54:57.246Z,20.20
2022-09-05T23:57:23.965Z,20.20
2022-09-05T23:59:52.394Z,20.20
